createdAt,value
2023-04-25T00:00:48.885Z,100.00
2023-04-25T00:03:15.766Z,100.00
2023-04-25T00:05:42.705Z,100.00
2023-04-25T00:08:09.476Z,100.00
2023-04-25T00:10:36.374Z,100.00
2023-04-25T00:13:06.092Z,100.00
2023-04-25T00:15:38.855Z,100.00
2023-04-25T00:18:06.822Z,100.00
2023-04-25T00:20:33.625Z,100.00
2023-04-25T00:23:00.348Z,100.00
2023-04-25T00:25:30.417Z,100.00
2023-04-25T00:27:57.102Z,100.00
2023-04-25T00:30:24.031Z,100.00
2023-04-25T00:32:51.667Z,100.00
2023-04-25T00:35:18.768Z,100.00
2023-04-25T00:37:49.565Z,100.00
2023-04-25T00:40:21.390Z,100.00
2023-04-25T00:42:55.119Z,100.00
2023-04-25T00:45:22.311Z,100.00
2023-04-25T00:47:58.331Z,100.00
2023-04-25T00:50:26.558Z,100.00
2023-04-25T00:52:56.882Z,100.00
2023-04-25T00:55:23.720Z,100.00
2023-04-25T00:57:51.290Z,100.00
2023-04-25T01:00:22.546Z,100.00
2023-04-25T01:03:06.444Z,100.00
2023-04-25T01:05:33.566Z,100.00
2023-04-25T01:08:00.966Z,100.00
2023-04-25T01:10:28.310Z,100.00
2023-04-25T01:13:01.246Z,100.00
2023-04-25T01:15:28.136Z,100.00
2023-04-25T01:18:02.044Z,100.00
2023-04-25T01:20:34.174Z,100.00
2023-04-25T01:23:04.040Z,100.00
2023-04-25T01:25:34.830Z,100.00
2023-04-25T01:28:15.936Z,100.00
2023-04-25T01:30:55.912Z,100.00
2023-04-25T01:33:23.219Z,100.00
2023-04-25T01:35:55.667Z,100.00
2023-04-25T01:38:22.765Z,100.00
2023-04-25T01:40:56.125Z,100.00
2023-04-25T01:43:27.533Z,100.00
2023-04-25T01:46:00.726Z,100.00
2023-04-25T01:48:27.524Z,100.00
2023-04-25T01:51:03.927Z,100.00
2023-04-25T01:53:31.807Z,100.00
2023-04-25T01:56:00.750Z,100.00
2023-04-25T01:58:27.534Z,100.00
2023-04-25T02:00:59.964Z,100.00
2023-04-25T02:03:27.167Z,100.00
2023-04-25T02:05:57.183Z,100.00
2023-04-25T02:08:27.820Z,100.00
2023-04-25T02:10:57.685Z,100.00
2023-04-25T02:13:35.630Z,100.00
2023-04-25T02:16:05.725Z,100.00
2023-04-25T02:18:33.053Z,100.00
2023-04-25T02:21:02.144Z,100.00
2023-04-25T02:23:32.158Z,100.00
2023-04-25T02:25:59.369Z,100.00
2023-04-25T02:28:27.037Z,100.00
2023-04-25T02:30:56.864Z,100.00
2023-04-25T02:33:26.705Z,100.00
2023-04-25T02:35:56.786Z,100.00
2023-04-25T02:38:27.025Z,100.00
2023-04-25T02:40:56.657Z,100.00
2023-04-25T02:43:25.949Z,100.00
2023-04-25T02:45:55.935Z,100.00
2023-04-25T02:48:27.112Z,100.00
2023-04-25T02:50:56.772Z,100.00
2023-04-25T02:53:26.072Z,100.00
2023-04-25T02:55:56.258Z,100.00
2023-04-25T02:58:25.669Z,100.00
2023-04-25T03:00:56.097Z,100.00
2023-04-25T03:03:33.113Z,100.00
2023-04-25T03:06:00.042Z,100.00
2023-04-25T03:08:33.659Z,100.00
2023-04-25T03:11:03.051Z,100.00
2023-04-25T03:13:30.902Z,100.00
2023-04-25T03:16:00.188Z,100.00
2023-04-25T03:18:29.655Z,100.00
2023-04-25T03:20:56.762Z,100.00
2023-04-25T03:23:23.384Z,100.00
2023-04-25T03:25:54.436Z,100.00
2023-04-25T03:28:30.321Z,100.00
2023-04-25T03:30:57.103Z,100.00
2023-04-25T03:33:23.914Z,100.00
2023-04-25T03:35:59.282Z,100.00
2023-04-25T03:38:28.993Z,100.00
2023-04-25T03:40:58.976Z,100.00
2023-04-25T03:43:28.153Z,100.00
2023-04-25T03:45:56.022Z,100.00
2023-04-25T03:48:29.980Z,100.00
2023-04-25T03:51:12.910Z,100.00
2023-04-25T03:53:41.990Z,100.00
2023-04-25T03:56:11.839Z,100.00
2023-04-25T03:58:38.575Z,100.00
2023-04-25T04:01:08.516Z,100.00
2023-04-25T04:03:37.492Z,100.00
2023-04-25T04:06:09.812Z,100.00
2023-04-25T04:08:36.738Z,100.00
2023-04-25T04:11:03.617Z,100.00
2023-04-25T04:13:31.180Z,100.00
2023-04-25T04:16:01.657Z,100.00
2023-04-25T04:18:31.772Z,100.00
2023-04-25T04:20:59.262Z,100.00
2023-04-25T04:23:31.069Z,100.00
2023-04-25T04:26:03.781Z,100.00
2023-04-25T04:28:30.747Z,100.00
2023-04-25T04:31:07.675Z,100.00
2023-04-25T05:11:49.181Z,100.00
2023-04-25T05:57:46.906Z,100.00
2023-04-25T06:08:28.480Z,100.00
2023-04-25T06:21:54.299Z,100.00
2023-04-25T06:24:23.391Z,100.00
2023-04-25T06:26:54.614Z,100.00
2023-04-25T06:29:24.160Z,100.00
2023-04-25T06:31:51.221Z,100.00
2023-04-25T06:34:18.282Z,100.00
2023-04-25T06:36:45.587Z,100.00
2023-04-25T06:39:12.457Z,100.00
2023-04-25T06:41:39.195Z,95.53
2023-04-25T06:44:08.657Z,100.00
2023-04-25T06:46:38.914Z,100.00
2023-04-25T06:49:05.816Z,99.74
2023-04-25T06:51:32.563Z,99.95
2023-04-25T06:54:02.316Z,95.81
2023-04-25T06:56:31.925Z,99.08
2023-04-25T06:59:01.879Z,96.09
2023-04-25T07:01:28.528Z,94.79
2023-04-25T07:04:04.505Z,93.67
2023-04-25T07:06:32.074Z,94.11
2023-04-25T07:09:01.646Z,90.93
2023-04-25T07:11:28.293Z,93.31
2023-04-25T07:13:57.085Z,95.68
2023-04-25T07:16:23.787Z,96.09
2023-04-25T07:18:50.638Z,95.76
2023-04-25T07:21:17.456Z,93.26
2023-04-25T07:23:44.071Z,94.35
2023-04-25T07:26:10.873Z,92.57
2023-04-25T07:28:50.871Z,96.24
2023-04-25T07:31:19.253Z,100.00
2023-04-25T07:33:49.628Z,100.00
2023-04-25T07:36:16.604Z,100.00
2023-04-25T07:38:43.449Z,99.87
2023-04-25T07:41:10.124Z,99.06
2023-04-25T07:43:38.942Z,98.79
2023-04-25T07:46:06.179Z,99.95
2023-04-25T07:48:33.129Z,100.00
2023-04-25T07:51:02.467Z,100.00
2023-04-25T07:53:32.150Z,98.74
2023-04-25T07:56:00.715Z,97.04
2023-04-25T07:58:30.541Z,98.12
2023-04-25T08:01:03.084Z,94.21
2023-04-25T08:03:30.211Z,94.40
2023-04-25T08:05:57.282Z,98.69
2023-04-25T08:08:24.188Z,93.66
2023-04-25T08:10:53.562Z,92.20
2023-04-25T08:13:20.283Z,93.63
2023-04-25T08:15:52.281Z,90.26
2023-04-25T08:18:19.646Z,85.46
2023-04-25T08:20:51.820Z,90.92
2023-04-25T08:23:18.790Z,83.63
2023-04-25T08:25:45.509Z,82.11
2023-04-25T08:28:12.267Z,80.30
2023-04-25T08:30:39.021Z,79.86
2023-04-25T08:33:05.839Z,80.39
2023-04-25T08:35:35.509Z,80.34
2023-04-25T08:38:05.774Z,75.49
2023-04-25T08:40:42.990Z,75.47
2023-04-25T08:43:13.533Z,73.89
2023-04-25T08:45:43.100Z,69.92
2023-04-25T08:48:16.889Z,69.96
2023-04-25T08:50:54.193Z,65.57
2023-04-25T08:53:31.610Z,66.01
2023-04-25T08:56:04.478Z,65.16
2023-04-25T08:58:35.376Z,63.77
2023-04-25T09:01:05.334Z,65.92
2023-04-25T09:03:32.697Z,64.52
2023-04-25T09:06:00.034Z,61.29
2023-04-25T09:08:27.048Z,63.80
2023-04-25T09:10:56.779Z,63.15
2023-04-25T09:13:30.372Z,63.34
2023-04-25T09:15:59.114Z,62.06
2023-04-25T09:18:35.407Z,65.60
2023-04-25T09:21:15.020Z,66.15
2023-04-25T09:23:49.663Z,65.12
2023-04-25T09:26:22.366Z,67.12
2023-04-25T09:28:49.175Z,66.34
2023-04-25T09:31:26.266Z,69.92
2023-04-25T09:34:16.560Z,67.34
2023-04-25T09:36:50.566Z,68.83
2023-04-25T09:39:22.477Z,71.55
2023-04-25T09:42:09.826Z,69.71
2023-04-25T09:44:37.261Z,72.46
2023-04-25T09:47:04.792Z,66.66
2023-04-25T09:49:31.454Z,64.96
2023-04-25T09:52:00.386Z,63.05
2023-04-25T09:54:30.078Z,62.98
2023-04-25T09:57:02.270Z,61.16
2023-04-25T09:59:34.360Z,63.03
2023-04-25T10:02:01.408Z,63.79
2023-04-25T10:04:34.211Z,59.96
2023-04-25T10:07:07.322Z,63.77
2023-04-25T10:09:38.318Z,62.53
2023-04-25T10:12:08.165Z,64.96
2023-04-25T10:14:36.681Z,62.63
2023-04-25T10:17:04.200Z,62.80
2023-04-25T10:19:31.612Z,59.95
2023-04-25T10:22:19.669Z,58.29
2023-04-25T10:24:48.393Z,60.13
2023-04-25T10:27:15.735Z,64.00
2023-04-25T10:29:45.955Z,63.67
2023-04-25T10:32:16.076Z,67.95
2023-04-25T10:34:48.221Z,72.22
2023-04-25T10:37:18.225Z,77.11
2023-04-25T10:47:52.262Z,70.98
2023-04-25T10:58:47.290Z,59.53
2023-04-25T11:01:26.360Z,59.21
2023-04-25T11:03:59.651Z,60.34
2023-04-25T11:07:07.170Z,58.30
2023-04-25T11:23:17.050Z,56.47
2023-04-25T11:25:45.570Z,57.27
2023-04-25T11:28:12.322Z,60.83
2023-04-25T11:30:48.755Z,58.69
2023-04-25T11:33:15.639Z,62.48
2023-04-25T11:35:44.335Z,68.74
2023-04-25T11:38:11.972Z,67.92
2023-04-25T11:40:38.951Z,69.27
2023-04-25T11:43:05.871Z,72.39
2023-04-25T11:45:40.362Z,73.27
2023-04-25T11:48:07.738Z,65.00
2023-04-25T11:50:36.917Z,62.98
2023-04-25T11:53:04.021Z,60.38
2023-04-25T11:55:32.041Z,55.14
2023-04-25T11:58:01.778Z,55.06
2023-04-25T12:00:29.182Z,56.50
2023-04-25T12:03:01.674Z,54.84
2023-04-25T12:05:34.816Z,55.07
2023-04-25T12:08:18.552Z,56.86
2023-04-25T12:10:47.911Z,60.76
2023-04-25T12:13:25.515Z,69.77
2023-04-25T12:15:55.194Z,77.81
2023-04-25T12:18:26.734Z,84.89
2023-04-25T12:20:57.376Z,86.05
2023-04-25T12:23:29.225Z,79.89
2023-04-25T12:25:56.856Z,74.89
2023-04-25T12:28:28.006Z,63.66
2023-04-25T12:31:05.369Z,59.13
2023-04-25T12:33:38.913Z,60.33
2023-04-25T12:36:12.083Z,58.71
2023-04-25T12:38:43.741Z,59.42
2023-04-25T12:41:15.713Z,57.99
2023-04-25T12:43:45.354Z,61.16
2023-04-25T12:46:12.216Z,57.89
2023-04-25T12:48:45.501Z,56.68
2023-04-25T12:51:16.987Z,56.92
2023-04-25T12:53:46.798Z,56.93
2023-04-25T12:56:15.966Z,53.60
2023-04-25T12:58:45.021Z,50.98
2023-04-25T13:01:15.765Z,52.47
2023-04-25T13:03:42.635Z,53.07
2023-04-25T13:06:13.858Z,55.19
2023-04-25T13:08:46.119Z,57.41
2023-04-25T13:11:13.151Z,61.56
2023-04-25T13:13:42.024Z,78.00
2023-04-25T13:16:16.461Z,87.04
2023-04-25T13:18:43.395Z,93.91
2023-04-25T13:21:16.721Z,86.55
2023-04-25T13:23:47.696Z,80.73
2023-04-25T13:26:20.678Z,77.79
2023-04-25T13:28:47.362Z,68.35
2023-04-25T13:31:21.618Z,61.11
2023-04-25T13:33:48.610Z,57.92
2023-04-25T13:36:17.520Z,55.08
2023-04-25T13:38:45.908Z,54.40
2023-04-25T13:41:19.616Z,55.29
2023-04-25T13:43:48.809Z,49.59
2023-04-25T13:46:35.353Z,50.37
2023-04-25T14:08:08.972Z,100.00
2023-04-25T14:10:37.355Z,100.00
2023-04-25T14:13:05.640Z,100.00
2023-04-25T14:15:33.732Z,100.00
2023-04-25T14:18:02.421Z,97.57
2023-04-25T14:20:30.192Z,100.00
2023-04-25T14:23:01.341Z,99.19
2023-04-25T14:25:29.024Z,89.56
2023-04-25T14:27:58.879Z,87.53
2023-04-25T14:30:25.610Z,94.63
2023-04-25T14:32:56.624Z,100.00
2023-04-25T14:35:23.912Z,100.00
2023-04-25T14:37:50.627Z,93.99
2023-04-25T14:40:17.971Z,96.45
2023-04-25T14:42:44.796Z,96.03
2023-04-25T14:45:16.815Z,95.91
2023-04-25T14:47:43.587Z,93.17
2023-04-25T14:50:11.454Z,99.46
2023-04-25T14:52:38.243Z,99.98
2023-04-25T14:55:09.318Z,100.00
2023-04-25T14:57:36.507Z,100.00
2023-04-25T15:00:08.142Z,100.00
2023-04-25T15:02:37.933Z,80.78
2023-04-25T15:05:05.709Z,70.50
2023-04-25T15:07:32.653Z,65.73
2023-04-25T15:09:59.334Z,59.92
2023-04-25T15:12:29.117Z,55.72
2023-04-25T15:15:02.714Z,58.44
2023-04-25T15:17:31.998Z,55.32
2023-04-25T15:19:58.732Z,52.93
2023-04-25T15:22:25.510Z,55.21
2023-04-25T15:24:56.645Z,56.51
2023-04-25T15:27:24.421Z,59.34
2023-04-25T15:29:51.103Z,62.71
2023-04-25T15:32:18.128Z,67.08
2023-04-25T15:34:44.910Z,72.17
2023-04-25T15:37:11.985Z,75.07
2023-04-25T15:39:38.677Z,80.26
2023-04-25T15:42:05.448Z,97.83
2023-04-25T15:44:32.247Z,100.00
2023-04-25T15:46:59.013Z,100.00
2023-04-25T15:49:25.919Z,100.00
2023-04-25T15:51:54.488Z,97.54
2023-04-25T15:54:22.097Z,94.31
2023-04-25T15:56:51.555Z,100.00
2023-04-25T15:59:28.942Z,100.00
2023-04-25T16:01:58.071Z,100.00
2023-04-25T16:04:26.657Z,82.13
2023-04-25T16:06:58.552Z,76.90
2023-04-25T16:09:25.349Z,79.49
2023-04-25T16:11:54.319Z,84.32
2023-04-25T16:14:21.337Z,88.30
2023-04-25T16:16:48.169Z,90.50
2023-04-25T16:19:17.408Z,100.00
2023-04-25T16:21:44.531Z,100.00
2023-04-25T16:24:20.103Z,100.00
2023-04-25T16:26:49.390Z,100.00
2023-04-25T16:29:22.535Z,100.00
2023-04-25T16:31:49.314Z,100.00
2023-04-25T16:34:19.412Z,100.00
2023-04-25T16:36:46.071Z,100.00
2023-04-25T16:39:12.831Z,100.00
2023-04-25T16:41:42.007Z,100.00
2023-04-25T16:44:09.210Z,100.00
2023-04-25T16:46:36.380Z,100.00
2023-04-25T16:49:03.391Z,100.00
2023-04-25T16:51:33.535Z,100.00
2023-04-25T16:54:01.204Z,100.00
2023-04-25T16:56:28.003Z,100.00
2023-04-25T16:59:00.470Z,100.00
2023-04-25T17:01:27.572Z,100.00
2023-04-25T17:12:04.889Z,100.00
2023-04-25T17:22:43.801Z,100.00
2023-04-25T18:41:53.580Z,100.00
2023-04-25T18:44:29.430Z,100.00
2023-04-25T20:02:39.213Z,100.00
2023-04-25T20:05:10.057Z,100.00
2023-04-25T20:07:46.275Z,100.00
2023-04-25T20:10:14.432Z,100.00
2023-04-25T20:12:45.384Z,100.00
2023-04-25T20:15:12.779Z,100.00
2023-04-25T20:17:41.703Z,100.00
2023-04-25T20:20:12.461Z,100.00
2023-04-25T20:22:43.781Z,100.00
2023-04-25T20:25:13.586Z,100.00
2023-04-25T20:27:43.355Z,100.00
2023-04-25T20:30:12.062Z,100.00
2023-04-25T20:32:40.322Z,100.00
2023-04-25T20:35:13.257Z,100.00
2023-04-25T20:37:43.079Z,100.00
2023-04-25T20:40:10.412Z,100.00
2023-04-25T20:42:38.446Z,100.00
2023-04-25T20:45:16.027Z,100.00
2023-04-25T20:47:45.004Z,100.00
2023-04-25T20:50:12.202Z,100.00
2023-04-25T20:52:39.157Z,100.00
2023-04-25T20:55:15.960Z,100.00
2023-04-25T20:57:43.178Z,100.00
2023-04-25T21:03:07.828Z,100.00
2023-04-25T21:05:34.778Z,100.00
2023-04-25T21:08:04.919Z,100.00
2023-04-25T21:10:32.222Z,100.00
2023-04-25T21:13:02.200Z,100.00
2023-04-25T21:15:30.075Z,100.00
2023-04-25T21:17:56.782Z,100.00
2023-04-25T21:20:27.099Z,100.00
2023-04-25T21:22:56.685Z,100.00
2023-04-25T21:25:31.209Z,100.00
2023-04-25T21:28:00.201Z,100.00
2023-04-25T21:30:30.833Z,100.00
2023-04-25T21:32:57.705Z,100.00
2023-04-25T21:35:27.583Z,100.00
2023-04-25T21:37:57.339Z,100.00
2023-04-25T21:40:27.156Z,100.00
2023-04-25T21:42:56.870Z,100.00
2023-04-25T21:45:29.037Z,100.00
2023-04-25T21:47:55.825Z,100.00
2023-04-25T21:50:22.825Z,100.00
2023-04-25T21:52:54.331Z,100.00
2023-04-25T21:55:22.140Z,100.00
2023-04-25T21:57:48.889Z,100.00
2023-04-25T22:00:27.992Z,100.00
2023-04-25T22:03:15.984Z,100.00
2023-04-25T22:05:44.453Z,100.00
2023-04-25T22:08:13.633Z,100.00
2023-04-25T22:10:43.474Z,100.00
2023-04-25T22:13:10.285Z,100.00
2023-04-25T22:15:38.085Z,100.00
2023-04-25T22:18:06.218Z,100.00
2023-04-25T22:20:33.299Z,100.00
2023-04-25T22:23:00.205Z,100.00
2023-04-25T22:25:27.230Z,100.00
2023-04-25T22:27:57.336Z,100.00
2023-04-25T22:30:26.912Z,100.00
2023-04-25T22:32:57.887Z,100.00
2023-04-25T22:35:29.765Z,100.00
2023-04-25T22:37:56.756Z,100.00
2023-04-25T22:40:24.073Z,100.00
2023-04-25T22:42:50.844Z,100.00
2023-04-25T22:45:17.843Z,100.00
2023-04-25T22:47:44.726Z,100.00
2023-04-25T22:50:16.860Z,100.00
2023-04-25T22:52:46.784Z,100.00
2023-04-25T22:55:16.786Z,100.00
2023-04-25T22:57:43.718Z,100.00
2023-04-25T23:00:20.205Z,100.00
2023-04-25T23:02:48.630Z,100.00
2023-04-25T23:05:18.886Z,100.00
2023-04-25T23:07:45.711Z,100.00
2023-04-25T23:10:14.025Z,100.00
2023-04-25T23:12:44.007Z,100.00
2023-04-25T23:15:14.669Z,100.00
2023-04-25T23:17:44.494Z,100.00
2023-04-25T23:20:16.818Z,100.00
2023-04-25T23:22:43.646Z,100.00
2023-04-25T23:25:10.719Z,100.00
2023-04-25T23:27:38.095Z,100.00
2023-04-25T23:30:10.482Z,100.00
2023-04-25T23:32:38.650Z,100.00
2023-04-25T23:35:06.720Z,100.00
2023-04-25T23:37:38.622Z,100.00
2023-04-25T23:40:10.188Z,100.00
2023-04-25T23:42:42.507Z,100.00
2023-04-25T23:45:10.111Z,100.00
2023-04-25T23:47:37.524Z,100.00
2023-04-25T23:50:08.024Z,100.00
2023-04-25T23:52:36.080Z,100.00
2023-04-25T23:55:05.387Z,100.00
2023-04-25T23:57:32.953Z,100.00
